sensor_id;sensor_type;location;lat;lon;timestamp;temperature;humidity
56044;DHT22;41912;51.022;3.664;2023-04-06T00:01:47;10.80;95.60
56044;DHT22;41912;51.022;3.664;2023-04-06T00:04:13;10.80;95.20
56044;DHT22;41912;51.022;3.664;2023-04-06T00:06:38;10.70;95.70
56044;DHT22;41912;51.022;3.664;2023-04-06T00:09:04;10.80;95.90
56044;DHT22;41912;51.022;3.664;2023-04-06T00:11:30;10.80;95.60
56044;DHT22;41912;51.022;3.664;2023-04-06T00:13:56;10.80;96.60
56044;DHT22;41912;51.022;3.664;2023-04-06T00:16:21;10.80;95.60
56044;DHT22;41912;51.022;3.664;2023-04-06T00:18:47;10.80;95.70
56044;DHT22;41912;51.022;3.664;2023-04-06T00:21:13;10.80;96.00
56044;DHT22;41912;51.022;3.664;2023-04-06T00:23:40;10.80;98.30
56044;DHT22;41912;51.022;3.664;2023-04-06T00:26:06;10.70;97.90
56044;DHT22;41912;51.022;3.664;2023-04-06T00:28:31;10.70;98.10
56044;DHT22;41912;51.022;3.664;2023-04-06T00:30:57;10.60;98.30
56044;DHT22;41912;51.022;3.664;2023-04-06T00:33:23;10.60;98.30
56044;DHT22;41912;51.022;3.664;2023-04-06T00:35:49;10.60;97.70
56044;DHT22;41912;51.022;3.664;2023-04-06T00:38:15;10.60;98.30
56044;DHT22;41912;51.022;3.664;2023-04-06T00:40:41;10.60;98.40
56044;DHT22;41912;51.022;3.664;2023-04-06T00:43:09;10.50;99.50
56044;DHT22;41912;51.022;3.664;2023-04-06T00:45:35;10.50;99.50
56044;DHT22;41912;51.022;3.664;2023-04-06T00:48:01;10.50;99.90
56044;DHT22;41912;51.022;3.664;2023-04-06T00:50:30;10.40;99.90
56044;DHT22;41912;51.022;3.664;2023-04-06T00:52:56;10.30;99.90
56044;DHT22;41912;51.022;3.664;2023-04-06T00:55:21;10.40;99.40
56044;DHT22;41912;51.022;3.664;2023-04-06T00:57:47;10.40;99.20
56044;DHT22;41912;51.022;3.664;2023-04-06T01:00:14;10.40;99.60
56044;DHT22;41912;51.022;3.664;2023-04-06T01:02:40;10.40;99.90
56044;DHT22;41912;51.022;3.664;2023-04-06T01:05:06;10.50;98.90
56044;DHT22;41912;51.022;3.664;2023-04-06T01:07:32;10.50;98.80
56044;DHT22;41912;51.022;3.664;2023-04-06T01:09:57;10.50;99.00
56044;DHT22;41912;51.022;3.664;2023-04-06T01:12:24;10.50;99.50
56044;DHT22;41912;51.022;3.664;2023-04-06T01:14:49;10.50;99.60
56044;DHT22;41912;51.022;3.664;2023-04-06T01:17:15;10.50;99.90
56044;DHT22;41912;51.022;3.664;2023-04-06T01:19:41;10.50;99.90
56044;DHT22;41912;51.022;3.664;2023-04-06T01:22:07;10.50;99.90
56044;DHT22;41912;51.022;3.664;2023-04-06T01:24:33;10.60;99.20
56044;DHT22;41912;51.022;3.664;2023-04-06T01:26:59;10.60;99.50
56044;DHT22;41912;51.022;3.664;2023-04-06T01:29:26;10.60;99.40
56044;DHT22;41912;51.022;3.664;2023-04-06T01:31:51;10.60;99.20
56044;DHT22;41912;51.022;3.664;2023-04-06T01:34:17;10.60;99.80
56044;DHT22;41912;51.022;3.664;2023-04-06T01:36:43;10.50;99.90
56044;DHT22;41912;51.022;3.664;2023-04-06T01:39:08;10.50;99.90
56044;DHT22;41912;51.022;3.664;2023-04-06T01:41:34;10.50;99.90
56044;DHT22;41912;51.022;3.664;2023-04-06T01:44:01;10.50;99.90
56044;DHT22;41912;51.022;3.664;2023-04-06T01:46:26;10.50;99.90
56044;DHT22;41912;51.022;3.664;2023-04-06T01:48:52;10.50;99.90
56044;DHT22;41912;51.022;3.664;2023-04-06T01:51:18;10.40;99.90
56044;DHT22;41912;51.022;3.664;2023-04-06T01:53:43;10.40;99.90
56044;DHT22;41912;51.022;3.664;2023-04-06T01:56:09;10.30;99.90
56044;DHT22;41912;51.022;3.664;2023-04-06T01:58:35;10.30;99.90
56044;DHT22;41912;51.022;3.664;2023-04-06T02:01:01;10.30;99.90
56044;DHT22;41912;51.022;3.664;2023-04-06T02:03:26;10.30;99.90
56044;DHT22;41912;51.022;3.664;2023-04-06T02:05:52;10.30;99.90
56044;DHT22;41912;51.022;3.664;2023-04-06T02:08:18;10.30;99.90
56044;DHT22;41912;51.022;3.664;2023-04-06T02:10:43;10.20;99.90
56044;DHT22;41912;51.022;3.664;2023-04-06T02:13:09;10.20;99.90
56044;DHT22;41912;51.022;3.664;2023-04-06T02:15:34;10.10;99.90
56044;DHT22;41912;51.022;3.664;2023-04-06T02:18:00;10.10;99.90
56044;DHT22;41912;51.022;3.664;2023-04-06T02:20:26;10.10;99.90
56044;DHT22;41912;51.022;3.664;2023-04-06T02:22:52;10.10;99.90
56044;DHT22;41912;51.022;3.664;2023-04-06T02:25:17;10.10;99.90
56044;DHT22;41912;51.022;3.664;2023-04-06T02:27:43;10.10;99.90
56044;DHT22;41912;51.022;3.664;2023-04-06T02:30:09;10.10;99.90
56044;DHT22;41912;51.022;3.664;2023-04-06T02:32:35;10.10;99.90
56044;DHT22;41912;51.022;3.664;2023-04-06T02:35:01;10.10;99.90
56044;DHT22;41912;51.022;3.664;2023-04-06T02:37:26;10.10;99.90
56044;DHT22;41912;51.022;3.664;2023-04-06T02:39:52;10.00;99.90
56044;DHT22;41912;51.022;3.664;2023-04-06T02:42:18;10.00;99.90
56044;DHT22;41912;51.022;3.664;2023-04-06T02:44:43;10.10;99.90
56044;DHT22;41912;51.022;3.664;2023-04-06T02:47:09;10.20;99.90
56044;DHT22;41912;51.022;3.664;2023-04-06T02:49:35;10.20;99.90
56044;DHT22;41912;51.022;3.664;2023-04-06T02:52:01;10.20;99.90
56044;DHT22;41912;51.022;3.664;2023-04-06T02:54:26;10.20;99.90
56044;DHT22;41912;51.022;3.664;2023-04-06T02:56:52;10.20;99.90
56044;DHT22;41912;51.022;3.664;2023-04-06T02:59:18;10.30;99.90
56044;DHT22;41912;51.022;3.664;2023-04-06T03:01:43;10.30;99.90
56044;DHT22;41912;51.022;3.664;2023-04-06T03:04:09;10.30;99.90
56044;DHT22;41912;51.022;3.664;2023-04-06T03:06:36;10.30;99.90
56044;DHT22;41912;51.022;3.664;2023-04-06T03:09:02;10.30;99.90
56044;DHT22;41912;51.022;3.664;2023-04-06T03:11:27;10.30;99.90
56044;DHT22;41912;51.022;3.664;2023-04-06T03:13:53;10.30;99.90
56044;DHT22;41912;51.022;3.664;2023-04-06T03:16:18;10.20;99.90
56044;DHT22;41912;51.022;3.664;2023-04-06T03:18:44;10.20;99.90
56044;DHT22;41912;51.022;3.664;2023-04-06T03:21:10;10.20;99.90
56044;DHT22;41912;51.022;3.664;2023-04-06T03:23:36;10.20;99.90
56044;DHT22;41912;51.022;3.664;2023-04-06T03:26:02;10.20;99.90
56044;DHT22;41912;51.022;3.664;2023-04-06T03:28:27;10.20;99.90
56044;DHT22;41912;51.022;3.664;2023-04-06T03:30:53;10.20;99.90
56044;DHT22;41912;51.022;3.664;2023-04-06T03:33:19;10.20;99.90
56044;DHT22;41912;51.022;3.664;2023-04-06T03:35:44;10.20;99.90
56044;DHT22;41912;51.022;3.664;2023-04-06T03:38:10;10.20;99.90
56044;DHT22;41912;51.022;3.664;2023-04-06T03:40:36;10.20;99.90
56044;DHT22;41912;51.022;3.664;2023-04-06T03:43:01;10.20;99.90
56044;DHT22;41912;51.022;3.664;2023-04-06T03:45:27;10.20;99.90
56044;DHT22;41912;51.022;3.664;2023-04-06T03:47:53;10.20;99.90
56044;DHT22;41912;51.022;3.664;2023-04-06T03:50:18;10.20;99.90
56044;DHT22;41912;51.022;3.664;2023-04-06T03:52:44;10.20;99.90
56044;DHT22;41912;51.022;3.664;2023-04-06T03:55:10;10.20;99.90
56044;DHT22;41912;51.022;3.664;2023-04-06T03:57:36;10.20;99.90
56044;DHT22;41912;51.022;3.664;2023-04-06T04:00:03;10.10;99.90
56044;DHT22;41912;51.022;3.664;2023-04-06T04:02:29;10.20;99.90
56044;DHT22;41912;51.022;3.664;2023-04-06T04:04:55;10.30;99.90
56044;DHT22;41912;51.022;3.664;2023-04-06T04:07:20;10.20;99.90
56044;DHT22;41912;51.022;3.664;2023-04-06T04:09:46;10.20;99.90
56044;DHT22;41912;51.022;3.664;2023-04-06T04:12:12;10.20;99.90
56044;DHT22;41912;51.022;3.664;2023-04-06T04:14:37;10.20;99.90
56044;DHT22;41912;51.022;3.664;2023-04-06T04:17:03;10.20;99.90
56044;DHT22;41912;51.022;3.664;2023-04-06T04:19:28;10.20;99.90
56044;DHT22;41912;51.022;3.664;2023-04-06T04:21:54;10.20;99.90
56044;DHT22;41912;51.022;3.664;2023-04-06T04:24:20;10.20;99.90
56044;DHT22;41912;51.022;3.664;2023-04-06T04:26:45;10.20;99.90
56044;DHT22;41912;51.022;3.664;2023-04-06T04:29:11;10.20;99.90
56044;DHT22;41912;51.022;3.664;2023-04-06T04:31:37;10.20;99.90
56044;DHT22;41912;51.022;3.664;2023-04-06T04:34:02;10.20;99.90
56044;DHT22;41912;51.022;3.664;2023-04-06T04:36:29;10.20;99.90
56044;DHT22;41912;51.022;3.664;2023-04-06T04:38:55;10.20;99.90
56044;DHT22;41912;51.022;3.664;2023-04-06T04:41:20;10.20;99.90
56044;DHT22;41912;51.022;3.664;2023-04-06T04:43:46;10.20;99.90
56044;DHT22;41912;51.022;3.664;2023-04-06T04:46:12;10.20;99.90
56044;DHT22;41912;51.022;3.664;2023-04-06T04:48:37;10.20;99.90
56044;DHT22;41912;51.022;3.664;2023-04-06T04:51:04;10.20;99.90
56044;DHT22;41912;51.022;3.664;2023-04-06T04:53:30;10.10;99.90
56044;DHT22;41912;51.022;3.664;2023-04-06T04:55:56;10.20;99.90
56044;DHT22;41912;51.022;3.664;2023-04-06T04:58:21;10.10;99.90
56044;DHT22;41912;51.022;3.664;2023-04-06T05:00:47;10.10;99.90
56044;DHT22;41912;51.022;3.664;2023-04-06T05:03:25;10.10;99.90
56044;DHT22;41912;51.022;3.664;2023-04-06T05:05:51;10.10;99.90
56044;DHT22;41912;51.022;3.664;2023-04-06T05:08:17;10.10;99.90
56044;DHT22;41912;51.022;3.664;2023-04-06T05:10:43;10.10;99.90
56044;DHT22;41912;51.022;3.664;2023-04-06T05:13:09;10.10;99.90
56044;DHT22;41912;51.022;3.664;2023-04-06T05:15:35;10.00;99.90
56044;DHT22;41912;51.022;3.664;2023-04-06T05:18:03;10.10;99.90
56044;DHT22;41912;51.022;3.664;2023-04-06T05:20:29;10.00;99.90
56044;DHT22;41912;51.022;3.664;2023-04-06T05:22:55;10.10;99.90
56044;DHT22;41912;51.022;3.664;2023-04-06T05:25:21;10.00;99.90
56044;DHT22;41912;51.022;3.664;2023-04-06T05:27:46;10.10;99.90
56044;DHT22;41912;51.022;3.664;2023-04-06T05:30:12;10.10;99.90
56044;DHT22;41912;51.022;3.664;2023-04-06T05:32:38;10.10;99.90
56044;DHT22;41912;51.022;3.664;2023-04-06T05:35:04;10.10;99.90
56044;DHT22;41912;51.022;3.664;2023-04-06T05:37:30;10.10;99.90
56044;DHT22;41912;51.022;3.664;2023-04-06T05:39:56;10.10;99.90
56044;DHT22;41912;51.022;3.664;2023-04-06T05:42:22;10.10;99.90
56044;DHT22;41912;51.022;3.664;2023-04-06T05:44:48;10.10;99.90
56044;DHT22;41912;51.022;3.664;2023-04-06T05:47:13;10.10;99.90
56044;DHT22;41912;51.022;3.664;2023-04-06T05:49:39;10.00;99.90
56044;DHT22;41912;51.022;3.664;2023-04-06T05:52:06;10.00;99.90
56044;DHT22;41912;51.022;3.664;2023-04-06T05:54:32;9.90;99.90
56044;DHT22;41912;51.022;3.664;2023-04-06T05:56:58;9.80;99.90
56044;DHT22;41912;51.022;3.664;2023-04-06T05:59:23;9.90;99.90
56044;DHT22;41912;51.022;3.664;2023-04-06T06:01:49;9.90;99.90
56044;DHT22;41912;51.022;3.664;2023-04-06T06:04:15;9.90;99.90
56044;DHT22;41912;51.022;3.664;2023-04-06T06:06:40;9.80;99.90
56044;DHT22;41912;51.022;3.664;2023-04-06T06:09:06;9.90;99.90
56044;DHT22;41912;51.022;3.664;2023-04-06T06:11:32;9.80;99.90
56044;DHT22;41912;51.022;3.664;2023-04-06T06:13:58;9.70;99.90
56044;DHT22;41912;51.022;3.664;2023-04-06T06:16:24;9.70;99.90
56044;DHT22;41912;51.022;3.664;2023-04-06T06:18:49;9.70;99.90
56044;DHT22;41912;51.022;3.664;2023-04-06T06:21:15;9.70;99.90
56044;DHT22;41912;51.022;3.664;2023-04-06T06:23:42;9.70;99.90
56044;DHT22;41912;51.022;3.664;2023-04-06T06:26:08;9.70;99.90
56044;DHT22;41912;51.022;3.664;2023-04-06T06:28:34;9.70;99.90
56044;DHT22;41912;51.022;3.664;2023-04-06T06:31:00;9.70;99.90
56044;DHT22;41912;51.022;3.664;2023-04-06T06:33:26;9.70;99.90
56044;DHT22;41912;51.022;3.664;2023-04-06T06:35:52;9.70;99.90
56044;DHT22;41912;51.022;3.664;2023-04-06T06:38:18;9.70;99.90
56044;DHT22;41912;51.022;3.664;2023-04-06T06:40:45;9.70;99.90
56044;DHT22;41912;51.022;3.664;2023-04-06T06:43:11;9.70;99.90
56044;DHT22;41912;51.022;3.664;2023-04-06T06:45:37;9.70;99.90
56044;DHT22;41912;51.022;3.664;2023-04-06T06:48:02;9.70;99.90
56044;DHT22;41912;51.022;3.664;2023-04-06T06:50:28;9.70;99.90
56044;DHT22;41912;51.022;3.664;2023-04-06T06:52:54;9.70;99.90
56044;DHT22;41912;51.022;3.664;2023-04-06T06:55:20;9.70;99.90
56044;DHT22;41912;51.022;3.664;2023-04-06T06:57:45;9.70;99.90
56044;DHT22;41912;51.022;3.664;2023-04-06T07:00:14;9.70;99.90
56044;DHT22;41912;51.022;3.664;2023-04-06T07:02:40;9.70;99.90
56044;DHT22;41912;51.022;3.664;2023-04-06T07:05:06;9.70;99.90
56044;DHT22;41912;51.022;3.664;2023-04-06T07:07:32;9.80;99.90
56044;DHT22;41912;51.022;3.664;2023-04-06T07:09:59;9.80;99.90
56044;DHT22;41912;51.022;3.664;2023-04-06T07:12:25;9.80;99.90
56044;DHT22;41912;51.022;3.664;2023-04-06T07:14:51;9.70;99.90
56044;DHT22;41912;51.022;3.664;2023-04-06T07:17:16;9.80;99.90
56044;DHT22;41912;51.022;3.664;2023-04-06T07:19:42;9.70;99.90
56044;DHT22;41912;51.022;3.664;2023-04-06T07:22:08;9.70;99.90
56044;DHT22;41912;51.022;3.664;2023-04-06T07:24:33;9.70;99.90
56044;DHT22;41912;51.022;3.664;2023-04-06T07:26:59;9.60;99.90
56044;DHT22;41912;51.022;3.664;2023-04-06T07:29:26;9.50;99.90
56044;DHT22;41912;51.022;3.664;2023-04-06T07:31:52;9.60;99.90
56044;DHT22;41912;51.022;3.664;2023-04-06T07:34:18;9.70;99.90
56044;DHT22;41912;51.022;3.664;2023-04-06T07:36:43;9.70;99.90
56044;DHT22;41912;51.022;3.664;2023-04-06T07:39:10;9.70;99.90
56044;DHT22;41912;51.022;3.664;2023-04-06T07:41:36;9.70;99.90
56044;DHT22;41912;51.022;3.664;2023-04-06T07:44:01;9.70;99.90
56044;DHT22;41912;51.022;3.664;2023-04-06T07:46:27;9.70;99.90
56044;DHT22;41912;51.022;3.664;2023-04-06T07:48:53;9.70;99.90
56044;DHT22;41912;51.022;3.664;2023-04-06T07:51:19;9.70;99.90
56044;DHT22;41912;51.022;3.664;2023-04-06T07:53:45;9.70;99.90
56044;DHT22;41912;51.022;3.664;2023-04-06T07:56:11;9.60;99.90
56044;DHT22;41912;51.022;3.664;2023-04-06T07:58:38;9.70;99.90
56044;DHT22;41912;51.022;3.664;2023-04-06T08:01:03;9.70;99.90
56044;DHT22;41912;51.022;3.664;2023-04-06T08:03:29;9.70;99.90
56044;DHT22;41912;51.022;3.664;2023-04-06T08:05:55;9.70;99.90
56044;DHT22;41912;51.022;3.664;2023-04-06T08:08:21;9.70;99.90
56044;DHT22;41912;51.022;3.664;2023-04-06T08:10:48;9.70;99.90
56044;DHT22;41912;51.022;3.664;2023-04-06T08:13:14;9.70;99.90
56044;DHT22;41912;51.022;3.664;2023-04-06T08:15:40;9.70;99.90
56044;DHT22;41912;51.022;3.664;2023-04-06T08:18:06;9.70;99.90
56044;DHT22;41912;51.022;3.664;2023-04-06T08:20:32;9.60;99.90
56044;DHT22;41912;51.022;3.664;2023-04-06T08:22:57;9.60;99.90
56044;DHT22;41912;51.022;3.664;2023-04-06T08:25:23;9.70;99.90
56044;DHT22;41912;51.022;3.664;2023-04-06T08:27:48;9.70;99.90
56044;DHT22;41912;51.022;3.664;2023-04-06T08:30:16;9.70;99.90
56044;DHT22;41912;51.022;3.664;2023-04-06T08:32:42;9.70;99.90
56044;DHT22;41912;51.022;3.664;2023-04-06T08:35:08;9.70;99.90
56044;DHT22;41912;51.022;3.664;2023-04-06T08:37:34;9.70;99.90
56044;DHT22;41912;51.022;3.664;2023-04-06T08:40:00;9.60;99.90
56044;DHT22;41912;51.022;3.664;2023-04-06T08:42:26;9.60;99.90
56044;DHT22;41912;51.022;3.664;2023-04-06T08:44:55;9.50;99.90
56044;DHT22;41912;51.022;3.664;2023-04-06T08:47:21;9.50;99.90
56044;DHT22;41912;51.022;3.664;2023-04-06T08:49:46;9.50;99.90
56044;DHT22;41912;51.022;3.664;2023-04-06T08:52:13;9.50;99.90
56044;DHT22;41912;51.022;3.664;2023-04-06T08:54:40;9.60;99.90
56044;DHT22;41912;51.022;3.664;2023-04-06T08:57:07;9.60;99.90
56044;DHT22;41912;51.022;3.664;2023-04-06T08:59:33;9.60;99.90
56044;DHT22;41912;51.022;3.664;2023-04-06T09:02:01;9.60;99.90
56044;DHT22;41912;51.022;3.664;2023-04-06T09:04:28;9.60;99.90
56044;DHT22;41912;51.022;3.664;2023-04-06T09:06:54;9.60;99.90
56044;DHT22;41912;51.022;3.664;2023-04-06T09:09:20;9.60;99.90
56044;DHT22;41912;51.022;3.664;2023-04-06T09:11:48;9.70;99.90
56044;DHT22;41912;51.022;3.664;2023-04-06T09:14:15;9.70;99.90
56044;DHT22;41912;51.022;3.664;2023-04-06T09:16:43;9.80;99.90
56044;DHT22;41912;51.022;3.664;2023-04-06T09:19:09;9.80;99.90
56044;DHT22;41912;51.022;3.664;2023-04-06T09:21:36;9.70;99.90
56044;DHT22;41912;51.022;3.664;2023-04-06T09:24:03;9.80;99.90
56044;DHT22;41912;51.022;3.664;2023-04-06T09:26:29;9.70;99.90
56044;DHT22;41912;51.022;3.664;2023-04-06T09:28:57;9.70;99.90
56044;DHT22;41912;51.022;3.664;2023-04-06T09:31:28;9.70;99.90
56044;DHT22;41912;51.022;3.664;2023-04-06T09:33:54;9.80;99.90
56044;DHT22;41912;51.022;3.664;2023-04-06T09:36:32;9.80;99.90
56044;DHT22;41912;51.022;3.664;2023-04-06T09:39:02;9.80;99.90
56044;DHT22;41912;51.022;3.664;2023-04-06T09:41:33;9.80;99.90
56044;DHT22;41912;51.022;3.664;2023-04-06T09:44:10;9.80;99.90
56044;DHT22;41912;51.022;3.664;2023-04-06T09:46:43;9.90;99.90
56044;DHT22;41912;51.022;3.664;2023-04-06T09:49:10;9.90;99.90
56044;DHT22;41912;51.022;3.664;2023-04-06T09:51:53;9.90;99.90
56044;DHT22;41912;51.022;3.664;2023-04-06T09:54:21;9.90;99.90
56044;DHT22;41912;51.022;3.664;2023-04-06T10:02:08;9.90;99.90
56044;DHT22;41912;51.022;3.664;2023-04-06T10:04:43;9.90;99.90
56044;DHT22;41912;51.022;3.664;2023-04-06T10:07:09;9.90;99.90
56044;DHT22;41912;51.022;3.664;2023-04-06T10:09:37;10.00;99.90
56044;DHT22;41912;51.022;3.664;2023-04-06T10:12:05;10.00;99.90
56044;DHT22;41912;51.022;3.664;2023-04-06T10:14:34;10.10;99.90
56044;DHT22;41912;51.022;3.664;2023-04-06T10:17:04;10.10;99.90
56044;DHT22;41912;51.022;3.664;2023-04-06T10:19:49;10.00;99.90
56044;DHT22;41912;51.022;3.664;2023-04-06T10:22:22;10.00;99.90
56044;DHT22;41912;51.022;3.664;2023-04-06T10:24:49;10.00;99.90
56044;DHT22;41912;51.022;3.664;2023-04-06T10:27:15;10.00;99.90
56044;DHT22;41912;51.022;3.664;2023-04-06T10:29:47;10.00;99.90
56044;DHT22;41912;51.022;3.664;2023-04-06T10:32:16;10.10;99.90
56044;DHT22;41912;51.022;3.664;2023-04-06T10:34:42;10.10;99.90
56044;DHT22;41912;51.022;3.664;2023-04-06T10:37:14;10.00;99.90
56044;DHT22;41912;51.022;3.664;2023-04-06T10:39:51;10.00;99.90
56044;DHT22;41912;51.022;3.664;2023-04-06T10:42:24;10.00;99.90
56044;DHT22;41912;51.022;3.664;2023-04-06T10:44:50;10.00;99.90
56044;DHT22;41912;51.022;3.664;2023-04-06T10:47:19;10.00;99.90
56044;DHT22;41912;51.022;3.664;2023-04-06T10:49:45;10.00;99.90
56044;DHT22;41912;51.022;3.664;2023-04-06T10:52:10;10.00;99.90
56044;DHT22;41912;51.022;3.664;2023-04-06T10:54:41;10.00;99.90
56044;DHT22;41912;51.022;3.664;2023-04-06T10:57:07;10.00;99.90
56044;DHT22;41912;51.022;3.664;2023-04-06T10:59:32;10.10;99.90
56044;DHT22;41912;51.022;3.664;2023-04-06T11:01:58;10.20;99.90
56044;DHT22;41912;51.022;3.664;2023-04-06T11:04:25;10.30;99.90
56044;DHT22;41912;51.022;3.664;2023-04-06T11:06:50;10.30;99.90
56044;DHT22;41912;51.022;3.664;2023-04-06T11:09:34;10.30;99.90
56044;DHT22;41912;51.022;3.664;2023-04-06T11:12:02;10.20;99.90
56044;DHT22;41912;51.022;3.664;2023-04-06T11:14:27;10.20;99.90
56044;DHT22;41912;51.022;3.664;2023-04-06T11:16:53;10.20;99.90
56044;DHT22;41912;51.022;3.664;2023-04-06T11:19:19;10.20;99.90
56044;DHT22;41912;51.022;3.664;2023-04-06T11:21:48;10.20;99.90
56044;DHT22;41912;51.022;3.664;2023-04-06T11:24:19;10.20;99.90
56044;DHT22;41912;51.022;3.664;2023-04-06T11:26:50;10.20;99.90
56044;DHT22;41912;51.022;3.664;2023-04-06T11:29:21;10.20;99.90
56044;DHT22;41912;51.022;3.664;2023-04-06T11:31:47;10.20;99.90
56044;DHT22;41912;51.022;3.664;2023-04-06T11:34:19;10.30;99.90
56044;DHT22;41912;51.022;3.664;2023-04-06T11:36:46;10.30;99.90
56044;DHT22;41912;51.022;3.664;2023-04-06T11:39:17;10.30;99.90
56044;DHT22;41912;51.022;3.664;2023-04-06T11:41:47;10.30;99.90
56044;DHT22;41912;51.022;3.664;2023-04-06T11:44:13;10.30;99.90
56044;DHT22;41912;51.022;3.664;2023-04-06T11:46:39;10.40;99.90
56044;DHT22;41912;51.022;3.664;2023-04-06T11:49:05;10.40;99.90
56044;DHT22;41912;51.022;3.664;2023-04-06T11:51:35;10.40;99.90
56044;DHT22;41912;51.022;3.664;2023-04-06T11:54:01;10.30;99.90
56044;DHT22;41912;51.022;3.664;2023-04-06T11:56:30;10.40;99.90
56044;DHT22;41912;51.022;3.664;2023-04-06T11:58:57;10.40;99.90
56044;DHT22;41912;51.022;3.664;2023-04-06T12:01:24;10.50;99.90
56044;DHT22;41912;51.022;3.664;2023-04-06T12:03:51;10.50;99.90
56044;DHT22;41912;51.022;3.664;2023-04-06T12:06:16;10.50;99.90
56044;DHT22;41912;51.022;3.664;2023-04-06T12:08:42;10.50;99.90
56044;DHT22;41912;51.022;3.664;2023-04-06T12:11:08;10.50;99.90
56044;DHT22;41912;51.022;3.664;2023-04-06T12:13:33;10.40;99.90
56044;DHT22;41912;51.022;3.664;2023-04-06T12:15:59;10.40;99.90
56044;DHT22;41912;51.022;3.664;2023-04-06T12:18:25;10.40;99.90
56044;DHT22;41912;51.022;3.664;2023-04-06T12:20:51;10.40;99.90
56044;DHT22;41912;51.022;3.664;2023-04-06T12:23:18;10.40;99.90
56044;DHT22;41912;51.022;3.664;2023-04-06T12:25:44;10.50;99.90
56044;DHT22;41912;51.022;3.664;2023-04-06T12:28:10;10.50;99.90
56044;DHT22;41912;51.022;3.664;2023-04-06T12:30:36;10.50;99.90
56044;DHT22;41912;51.022;3.664;2023-04-06T12:33:02;10.50;99.90
56044;DHT22;41912;51.022;3.664;2023-04-06T12:35:28;10.50;99.90
56044;DHT22;41912;51.022;3.664;2023-04-06T12:37:53;10.50;99.90
56044;DHT22;41912;51.022;3.664;2023-04-06T12:40:20;10.60;99.90
56044;DHT22;41912;51.022;3.664;2023-04-06T12:42:45;10.60;99.90
56044;DHT22;41912;51.022;3.664;2023-04-06T12:45:12;10.60;99.90
56044;DHT22;41912;51.022;3.664;2023-04-06T12:47:37;10.60;99.90
56044;DHT22;41912;51.022;3.664;2023-04-06T12:50:04;10.60;99.90
56044;DHT22;41912;51.022;3.664;2023-04-06T12:52:31;10.70;99.90
56044;DHT22;41912;51.022;3.664;2023-04-06T12:54:57;10.70;99.90
56044;DHT22;41912;51.022;3.664;2023-04-06T12:57:25;10.70;99.90
56044;DHT22;41912;51.022;3.664;2023-04-06T12:59:51;10.70;99.90
56044;DHT22;41912;51.022;3.664;2023-04-06T13:02:18;10.70;99.90
56044;DHT22;41912;51.022;3.664;2023-04-06T13:04:45;10.80;99.90
56044;DHT22;41912;51.022;3.664;2023-04-06T13:07:11;10.80;99.90
56044;DHT22;41912;51.022;3.664;2023-04-06T13:09:37;10.80;99.90
56044;DHT22;41912;51.022;3.664;2023-04-06T13:12:02;10.80;99.90
56044;DHT22;41912;51.022;3.664;2023-04-06T13:14:28;10.70;99.90
56044;DHT22;41912;51.022;3.664;2023-04-06T13:16:54;10.80;99.90
56044;DHT22;41912;51.022;3.664;2023-04-06T13:19:20;10.80;99.90
56044;DHT22;41912;51.022;3.664;2023-04-06T13:21:45;10.80;99.90
56044;DHT22;41912;51.022;3.664;2023-04-06T13:24:11;10.80;99.90
56044;DHT22;41912;51.022;3.664;2023-04-06T13:26:37;10.80;99.90
56044;DHT22;41912;51.022;3.664;2023-04-06T13:29:02;10.80;99.90
56044;DHT22;41912;51.022;3.664;2023-04-06T13:31:29;10.90;99.90
56044;DHT22;41912;51.022;3.664;2023-04-06T13:33:55;10.90;99.90
56044;DHT22;41912;51.022;3.664;2023-04-06T13:36:21;11.00;99.90
56044;DHT22;41912;51.022;3.664;2023-04-06T13:38:47;11.10;99.90
56044;DHT22;41912;51.022;3.664;2023-04-06T13:41:20;11.10;99.90
56044;DHT22;41912;51.022;3.664;2023-04-06T13:43:46;11.20;99.90
56044;DHT22;41912;51.022;3.664;2023-04-06T13:46:12;11.20;99.90
56044;DHT22;41912;51.022;3.664;2023-04-06T13:48:37;11.20;99.90
56044;DHT22;41912;51.022;3.664;2023-04-06T13:51:10;11.20;99.90
56044;DHT22;41912;51.022;3.664;2023-04-06T13:53:36;11.30;99.90
56044;DHT22;41912;51.022;3.664;2023-04-06T13:56:02;11.30;99.90
56044;DHT22;41912;51.022;3.664;2023-04-06T13:58:28;11.40;99.90
56044;DHT22;41912;51.022;3.664;2023-04-06T14:00:53;11.40;99.90
56044;DHT22;41912;51.022;3.664;2023-04-06T14:03:21;11.40;99.90
56044;DHT22;41912;51.022;3.664;2023-04-06T14:05:46;11.50;99.90
56044;DHT22;41912;51.022;3.664;2023-04-06T14:08:12;11.50;99.90
56044;DHT22;41912;51.022;3.664;2023-04-06T14:10:39;11.50;99.90
56044;DHT22;41912;51.022;3.664;2023-04-06T14:13:06;11.50;99.90
56044;DHT22;41912;51.022;3.664;2023-04-06T14:15:32;11.50;99.90
56044;DHT22;41912;51.022;3.664;2023-04-06T14:17:57;11.60;99.90
56044;DHT22;41912;51.022;3.664;2023-04-06T14:20:23;11.50;99.90
56044;DHT22;41912;51.022;3.664;2023-04-06T14:22:48;11.60;99.90
56044;DHT22;41912;51.022;3.664;2023-04-06T14:25:16;11.60;99.90
56044;DHT22;41912;51.022;3.664;2023-04-06T14:27:43;11.60;99.90
56044;DHT22;41912;51.022;3.664;2023-04-06T14:30:09;11.70;99.90
56044;DHT22;41912;51.022;3.664;2023-04-06T14:32:36;11.80;99.90
56044;DHT22;41912;51.022;3.664;2023-04-06T14:35:03;11.90;99.90
56044;DHT22;41912;51.022;3.664;2023-04-06T14:37:29;12.00;99.90
56044;DHT22;41912;51.022;3.664;2023-04-06T14:39:55;12.00;99.90
56044;DHT22;41912;51.022;3.664;2023-04-06T14:42:20;12.10;99.90
56044;DHT22;41912;51.022;3.664;2023-04-06T14:44:46;12.10;99.90
56044;DHT22;41912;51.022;3.664;2023-04-06T14:47:14;12.20;99.90
56044;DHT22;41912;51.022;3.664;2023-04-06T14:49:46;12.20;99.90
56044;DHT22;41912;51.022;3.664;2023-04-06T14:52:11;12.30;99.90
56044;DHT22;41912;51.022;3.664;2023-04-06T14:54:37;12.30;99.90
56044;DHT22;41912;51.022;3.664;2023-04-06T14:57:02;12.30;99.90
56044;DHT22;41912;51.022;3.664;2023-04-06T14:59:28;12.30;99.90
56044;DHT22;41912;51.022;3.664;2023-04-06T15:01:54;12.30;99.90
56044;DHT22;41912;51.022;3.664;2023-04-06T15:04:20;12.30;99.90
56044;DHT22;41912;51.022;3.664;2023-04-06T15:06:45;12.40;99.90
56044;DHT22;41912;51.022;3.664;2023-04-06T15:09:11;12.50;99.90
56044;DHT22;41912;51.022;3.664;2023-04-06T15:11:36;12.50;99.90
56044;DHT22;41912;51.022;3.664;2023-04-06T15:14:03;12.60;99.90
56044;DHT22;41912;51.022;3.664;2023-04-06T15:16:28;12.70;99.90
56044;DHT22;41912;51.022;3.664;2023-04-06T15:18:58;12.80;99.90
56044;DHT22;41912;51.022;3.664;2023-04-06T15:21:24;12.70;99.90
56044;DHT22;41912;51.022;3.664;2023-04-06T15:23:50;12.70;99.90
56044;DHT22;41912;51.022;3.664;2023-04-06T15:26:16;12.60;99.90
56044;DHT22;41912;51.022;3.664;2023-04-06T15:28:42;12.50;99.90
56044;DHT22;41912;51.022;3.664;2023-04-06T15:31:19;12.50;99.90
56044;DHT22;41912;51.022;3.664;2023-04-06T15:33:47;12.50;99.90
56044;DHT22;41912;51.022;3.664;2023-04-06T15:36:33;12.40;99.90